Addison Township, MI (48367)

8:39 PM EDT on July 25, 2016 (GMT -0400)
Village of Leonard | | Change Station

Elev 1014 ft 42.87 °N, 83.15 °W | Updated 7 seconds ago

Clear
Clear
77.4 °F
Feels Like 79 °F
N
0.0
Wind Variable Wind from NW
Gusts 0.0 mph

Today
High -- | Low -- °F
--% Chance of Precip.
Yesterday
High -- | Low -- °F
Precip. -- in
Pressure 29.95 in
Visibility 10.0 miles
Clouds Clear
Heat Index 79 °F
Dew Point 56 °F
Humidity 47%
Rainfall 0.00 in
Snow Depth Not available.
6:17 AM 9:00 PM
Waning Gibbous, 61% visible
METAR KD95 260034Z AUTO 30004KT 10SM CLR 27/15 A2995 RMK AO2 T02720146
Pressure 29.95 in
Visibility 10.0 miles
Clouds Clear
Heat Index 79 °F
Dew Point 56 °F
Humidity 47%
Rainfall 0.00 in
Snow Depth Not available.
6:17 AM 9:00 PM
Waning Gibbous, 61% visible
METAR KD95 260034Z AUTO 30004KT 10SM CLR 27/15 A2995 RMK AO2 T02720146
Record highs are possible for parts of the Northeast Monday and Tuesday, as parts of the central U.S. take a little breather from the worst of summer's dog day heat.

Expansive high pressure in the upper atmosphere will focus on parts of the East and West this week, sending heat indices well into the triple digits from the Mid-Atlantic states into the South.

10-Day Weather Forecast

Almanac

Astronomy

Jul. 25, 2016 Rise Set
Actual Time
Civil Twilight
Nautical Twilight
Astronomical Twilight
Moon
Length of Visible Light
Length of Day
Tomorrow will be .
, % of the Moon is Illuminated

Today's Extremes

State Highs State Lows

Community

WunderPhotos

Upload Photos

1,927,479 photos uploaded!

WunderBlog® & News

Nearby

Air Quality

  Air Quality AQ Index Pollutant
Not available.

Snow Depth

Station Depth Elevation

Earthquake Activity

City Distance Mag. Time & Date
Minimum magnitude displayed is 2.5.

Coastal Water Temperatures

Place Temperature

Stations

Nearby Weather Stations

Station Location Temp. Windchill Dew Point Humidity Wind Precip. Elev Updated Type
                   

Watches & Warnings

There are currently no watches in effect.